createdAt,value
2023-02-24T00:02:06.455Z,99909.19
2023-02-24T00:04:41.134Z,99908.34
2023-02-24T00:07:12.712Z,99901.53
2023-02-24T00:09:40.533Z,99905.28
2023-02-24T00:12:13.339Z,99906.75
2023-02-24T00:14:45.146Z,99902.44
2023-02-24T00:17:17.071Z,99888.09
2023-02-24T00:19:46.400Z,99889.13
2023-02-24T00:22:13.869Z,99882.38
2023-02-24T00:24:42.166Z,99882.72
2023-02-24T00:27:12.206Z,99881.31
2023-02-24T00:29:42.181Z,99885.06
2023-02-24T00:32:30.475Z,99884.63
2023-02-24T00:34:58.100Z,99878.16
2023-02-24T00:37:25.810Z,99876.06
2023-02-24T00:39:58.581Z,99880.56
2023-02-24T00:42:26.181Z,99880.25
2023-02-24T00:44:54.186Z,99866.84
2023-02-24T00:47:22.561Z,99866.47
2023-02-24T00:49:50.446Z,99865.69
2023-02-24T00:52:21.164Z,99864.41
2023-02-24T00:54:50.978Z,99861.25
2023-02-24T00:57:21.396Z,99854.13
2023-02-24T00:59:51.859Z,99855.00
2023-02-24T01:02:20.709Z,99846.56
2023-02-24T01:04:50.016Z,99842.91
2023-02-24T01:07:17.987Z,99848.44
2023-02-24T01:09:45.632Z,99844.25
2023-02-24T01:12:32.361Z,99838.69
2023-02-24T01:15:03.024Z,99843.22
2023-02-24T01:17:33.097Z,99840.94
2023-02-24T01:20:15.123Z,99834.31
2023-02-24T01:22:47.623Z,99845.03
2023-02-24T01:25:19.017Z,99840.25
2023-02-24T01:27:46.703Z,99842.09
2023-02-24T01:30:16.239Z,99838.06
2023-02-24T01:32:46.981Z,99841.53
2023-02-24T01:35:15.158Z,99840.53
2023-02-24T01:37:43.251Z,99842.59
2023-02-24T01:40:20.814Z,99839.31
2023-02-24T01:42:49.507Z,99846.66
2023-02-24T01:45:22.077Z,99845.97
2023-02-24T01:47:51.211Z,99844.69
2023-02-24T01:50:22.057Z,99844.56
2023-02-24T01:52:56.235Z,99845.44
2023-02-24T01:55:33.842Z,99849.06
2023-02-24T01:58:09.632Z,99841.78
2023-02-24T02:00:44.944Z,99837.34
2023-02-24T02:03:26.137Z,99835.84
2023-02-24T02:06:01.605Z,99834.16
2023-02-24T02:08:30.118Z,99834.56
2023-02-24T02:11:06.070Z,99826.59
2023-02-24T02:13:36.823Z,99836.59
2023-02-24T02:16:35.230Z,99833.56
2023-02-24T02:19:11.307Z,99821.53
2023-02-24T02:22:02.478Z,99829.09
2023-02-24T02:24:44.696Z,99826.06
2023-02-24T02:27:29.406Z,99830.38
2023-02-24T02:30:14.055Z,99830.56
2023-02-24T02:33:06.954Z,99823.66
2023-02-24T02:35:54.395Z,99825.59
2023-02-24T02:38:38.104Z,99830.38
2023-02-24T02:41:28.549Z,99831.38
2023-02-24T02:44:34.051Z,99826.19
2023-02-24T02:47:18.845Z,99834.28
2023-02-24T02:49:56.774Z,99843.31
2023-02-24T02:52:34.928Z,99841.97
2023-02-24T02:55:12.042Z,99834.13
2023-02-24T02:57:47.283Z,99833.53
2023-02-24T03:00:21.520Z,99843.59
2023-02-24T03:02:55.374Z,99838.53
2023-02-24T03:05:32.008Z,99839.44
2023-02-24T03:08:04.784Z,99841.44
2023-02-24T03:10:34.432Z,99837.94
2023-02-24T03:13:06.908Z,99843.75
2023-02-24T03:15:35.453Z,99844.50
2023-02-24T03:18:10.517Z,99843.53
2023-02-24T03:21:11.867Z,99848.63
2023-02-24T03:23:51.560Z,99847.06
2023-02-24T03:26:41.543Z,99841.97
2023-02-24T03:29:52.776Z,99837.88
2023-02-24T03:32:56.615Z,99833.69
2023-02-24T03:35:29.795Z,99832.09
2023-02-24T03:37:59.996Z,99827.09
2023-02-24T03:40:35.973Z,99820.91
2023-02-24T03:43:26.105Z,99819.78
2023-02-24T03:45:56.662Z,99818.50
2023-02-24T03:48:26.167Z,99825.97
2023-02-24T03:50:53.874Z,99819.69
2023-02-24T03:53:44.432Z,99812.69
2023-02-24T03:56:48.609Z,99809.50
2023-02-24T03:59:57.444Z,99798.09
2023-02-24T04:02:31.298Z,99802.53
2023-02-24T04:05:22.269Z,99807.78
2023-02-24T04:08:01.327Z,99806.53
2023-02-24T04:10:53.925Z,99808.69
2023-02-24T04:13:48.062Z,99804.81
2023-02-24T04:16:40.713Z,99799.81
2023-02-24T04:19:19.000Z,99796.41
2023-02-24T04:21:50.867Z,99790.84
2023-02-24T04:24:29.305Z,99795.22
2023-02-24T04:27:01.968Z,99788.47
2023-02-24T04:29:40.885Z,99793.56
2023-02-24T04:32:12.903Z,99791.47
2023-02-24T04:34:41.980Z,99792.16
2023-02-24T04:37:10.032Z,99792.72
2023-02-24T04:39:38.572Z,99788.00
2023-02-24T04:42:10.951Z,99783.34
2023-02-24T04:44:38.491Z,99783.41
2023-02-24T04:47:05.997Z,99769.41
2023-02-24T04:49:34.096Z,99776.22
2023-02-24T04:52:01.561Z,99773.84
2023-02-24T04:54:29.772Z,99768.53
2023-02-24T04:56:59.198Z,99761.88
2023-02-24T04:59:28.333Z,99771.56
2023-02-24T05:01:55.793Z,99773.25
2023-02-24T05:04:24.018Z,99775.06
2023-02-24T05:06:51.522Z,99778.25
2023-02-24T05:09:19.474Z,99778.63
2023-02-24T05:11:50.768Z,99779.22
2023-02-24T05:14:25.047Z,99775.81
2023-02-24T05:16:53.034Z,99786.44
2023-02-24T05:19:39.698Z,99783.47
2023-02-24T05:22:07.382Z,99791.63
2023-02-24T05:24:34.985Z,99789.53
2023-02-24T05:27:03.923Z,99785.25
2023-02-24T05:29:37.077Z,99787.13
2023-02-24T05:32:05.803Z,99788.69
2023-02-24T05:34:35.187Z,99793.94
2023-02-24T05:37:10.216Z,99789.03
2023-02-24T05:39:38.433Z,99797.31
2023-02-24T05:42:06.717Z,99797.97
2023-02-24T05:44:35.745Z,99799.09
2023-02-24T05:47:05.627Z,99796.31
2023-02-24T05:49:35.775Z,99792.00
2023-02-24T05:52:09.052Z,99798.34
2023-02-24T05:54:44.171Z,99800.94
2023-02-24T05:57:24.840Z,99796.25
2023-02-24T05:59:53.214Z,99808.28
2023-02-24T06:02:27.505Z,99806.72
2023-02-24T06:04:55.819Z,99795.63
2023-02-24T06:07:28.631Z,99807.50
2023-02-24T06:09:58.717Z,99804.44
2023-02-24T06:12:30.088Z,99800.63
2023-02-24T06:15:00.412Z,99809.09
2023-02-24T06:17:29.367Z,99800.81
2023-02-24T06:19:56.880Z,99795.81
2023-02-24T06:22:26.404Z,99806.19
2023-02-24T06:24:56.840Z,99798.53
2023-02-24T06:27:25.319Z,99794.81
2023-02-24T06:29:55.298Z,99805.03
2023-02-24T06:32:26.530Z,99802.59
2023-02-24T06:34:55.230Z,99796.09
2023-02-24T06:37:23.356Z,99793.16
2023-02-24T06:39:51.199Z,99790.16
2023-02-24T06:42:19.089Z,99794.72
2023-02-24T06:44:47.693Z,99795.53
2023-02-24T06:47:17.989Z,99790.75
2023-02-24T06:49:45.684Z,99789.41
2023-02-24T06:52:19.052Z,99796.88
2023-02-24T06:54:49.766Z,99778.38
2023-02-24T06:57:17.842Z,99779.13
2023-02-24T06:59:46.196Z,99772.16
2023-02-24T07:02:17.696Z,99774.88
2023-02-24T07:04:45.364Z,99775.19
2023-02-24T07:07:14.471Z,99770.59
2023-02-24T07:09:42.753Z,99775.59
2023-02-24T07:12:12.698Z,99773.69
2023-02-24T07:14:40.738Z,99761.41
2023-02-24T07:17:08.566Z,99762.41
2023-02-24T07:19:36.993Z,99766.38
2023-02-24T07:22:04.600Z,99762.53
2023-02-24T07:24:36.943Z,99759.59
2023-02-24T07:27:12.078Z,99766.91
2023-02-24T07:29:40.387Z,99757.31
2023-02-24T07:32:11.373Z,99756.28
2023-02-24T07:34:40.592Z,99763.09
2023-02-24T07:37:10.636Z,99760.38
2023-02-24T07:39:39.979Z,99764.06
2023-02-24T07:42:15.403Z,99767.59
2023-02-24T07:44:49.134Z,99767.84
2023-02-24T07:47:16.910Z,99767.69
2023-02-24T07:49:45.635Z,99758.47
2023-02-24T07:52:13.341Z,99759.88
2023-02-24T07:54:40.834Z,99757.28
2023-02-24T07:57:13.507Z,99759.03
2023-02-24T07:59:47.607Z,99756.31
2023-02-24T08:02:15.914Z,99753.97
2023-02-24T08:04:50.098Z,99748.75
2023-02-24T08:07:25.223Z,99755.25
2023-02-24T08:10:10.437Z,99747.47
2023-02-24T08:12:42.844Z,99744.88
2023-02-24T08:15:17.402Z,99758.06
2023-02-24T08:17:47.513Z,99755.94
2023-02-24T08:20:15.763Z,99753.50
2023-02-24T08:22:52.023Z,99753.78
2023-02-24T08:25:35.564Z,99757.03
2023-02-24T08:28:09.586Z,99752.63
2023-02-24T08:30:47.057Z,99759.63
2023-02-24T08:33:22.510Z,99758.44
2023-02-24T08:36:02.134Z,99760.66
2023-02-24T08:38:51.867Z,99762.03
2023-02-24T08:41:29.226Z,99763.59
2023-02-24T08:43:56.807Z,99756.59
2023-02-24T08:46:32.822Z,99750.22
2023-02-24T08:49:01.180Z,99751.78
2023-02-24T08:51:35.162Z,99747.47
2023-02-24T08:54:11.452Z,99740.09
2023-02-24T08:56:49.173Z,99742.25
2023-02-24T08:59:54.486Z,99744.25
2023-02-24T09:02:23.256Z,99732.97
2023-02-24T09:05:14.257Z,99727.66
2023-02-24T09:07:42.850Z,99725.44
2023-02-24T09:10:19.086Z,99720.50
2023-02-24T09:12:49.046Z,99723.59
2023-02-24T09:15:16.704Z,99726.56
2023-02-24T09:17:45.970Z,99728.44
2023-02-24T09:20:56.380Z,99716.78
2023-02-24T09:23:30.026Z,99714.00
2023-02-24T09:25:58.013Z,99705.75
2023-02-24T09:28:29.185Z,99706.59
2023-02-24T09:31:00.466Z,99709.66
2023-02-24T09:33:39.563Z,99698.94
2023-02-24T09:36:28.237Z,99698.81
2023-02-24T09:39:00.803Z,99694.63
2023-02-24T09:42:06.089Z,99691.53
2023-02-24T09:44:41.209Z,99690.78
2023-02-24T09:47:42.389Z,99688.59
2023-02-24T09:50:51.284Z,99675.13
2023-02-24T09:53:17.984Z,99684.72
2023-02-24T09:56:00.556Z,99682.56
2023-02-24T09:59:10.431Z,99679.44
2023-02-24T10:02:05.334Z,99676.81
2023-02-24T10:05:07.944Z,99671.06
2023-02-24T10:07:41.847Z,99663.50
2023-02-24T10:10:28.076Z,99668.59
2023-02-24T10:13:17.069Z,99657.50
2023-02-24T10:15:59.339Z,99652.28
2023-02-24T10:19:01.253Z,99646.00
2023-02-24T10:21:49.590Z,99638.78
2023-02-24T10:24:29.412Z,99637.09
2023-02-24T10:27:01.210Z,99629.34
2023-02-24T10:30:28.052Z,99625.03
2023-02-24T10:33:00.586Z,99612.16
2023-02-24T10:35:37.877Z,99597.41
2023-02-24T10:38:05.900Z,99596.97
2023-02-24T10:40:57.178Z,99595.53
2023-02-24T10:43:31.521Z,99585.81
2023-02-24T10:46:17.156Z,99583.34
2023-02-24T10:49:01.040Z,99580.69
2023-02-24T10:51:40.455Z,99587.03
2023-02-24T10:54:48.678Z,99580.47
2023-02-24T10:57:38.265Z,99571.03
2023-02-24T11:00:51.980Z,99562.59
2023-02-24T11:03:36.077Z,99566.03
2023-02-24T11:06:04.473Z,99562.94
2023-02-24T11:08:48.129Z,99563.84
2023-02-24T11:11:30.715Z,99559.38
2023-02-24T11:14:20.181Z,99557.22
2023-02-24T11:17:12.638Z,99555.38
2023-02-24T11:20:01.950Z,99548.78
2023-02-24T11:22:37.120Z,99538.72
2023-02-24T11:25:23.712Z,99534.53
2023-02-24T11:27:55.950Z,99528.50
2023-02-24T11:30:56.775Z,99516.78
2023-02-24T11:33:57.779Z,99522.31
2023-02-24T11:36:46.472Z,99513.84
2023-02-24T11:39:42.171Z,99514.59
2023-02-24T11:42:27.455Z,99505.78
2023-02-24T11:45:22.773Z,99510.94
2023-02-24T11:48:03.269Z,99499.44
2023-02-24T11:50:59.216Z,99488.44
2023-02-24T11:53:56.688Z,99492.91
2023-02-24T11:56:40.098Z,99480.25
2023-02-24T11:59:36.508Z,99478.03
2023-02-24T12:02:17.336Z,99483.56
2023-02-24T12:05:13.544Z,99474.88
2023-02-24T12:07:56.636Z,99471.59
2023-02-24T12:10:39.069Z,99457.91
2023-02-24T12:13:16.482Z,99465.69
2023-02-24T12:15:59.547Z,99467.53
2023-02-24T12:18:34.972Z,99466.94
2023-02-24T12:21:36.423Z,99463.19
2023-02-24T12:24:08.609Z,99458.13
2023-02-24T12:27:22.908Z,99452.00
2023-02-24T12:30:34.260Z,99444.88
2023-02-24T12:33:35.516Z,99444.09
2023-02-24T12:36:20.919Z,99448.16
2023-02-24T12:39:01.996Z,99438.78
2023-02-24T12:42:05.545Z,99442.91
2023-02-24T12:45:32.049Z,99429.16
2023-02-24T12:48:46.842Z,99424.47
2023-02-24T12:51:47.432Z,99415.66
2023-02-24T12:54:30.302Z,99412.66
2023-02-24T12:57:31.240Z,99420.50
2023-02-24T13:00:09.849Z,99411.44
2023-02-24T13:03:00.341Z,99404.50
2023-02-24T13:05:41.989Z,99401.47
2023-02-24T13:08:36.965Z,99392.09
2023-02-24T13:11:38.597Z,99385.72
2023-02-24T13:14:41.062Z,99394.09
2023-02-24T13:17:11.247Z,99388.84
2023-02-24T13:19:41.643Z,99376.69
2023-02-24T13:22:16.813Z,99368.53
2023-02-24T13:25:10.364Z,99370.34
2023-02-24T13:27:44.880Z,99364.22
2023-02-24T13:30:12.667Z,99360.19
2023-02-24T13:32:47.695Z,99361.19
2023-02-24T13:35:18.071Z,99367.88
2023-02-24T13:37:48.172Z,99367.44
2023-02-24T13:40:22.665Z,99358.56
2023-02-24T13:43:04.812Z,99356.72
2023-02-24T13:45:40.079Z,99355.44
2023-02-24T13:48:37.245Z,99349.56
2023-02-24T13:51:50.217Z,99348.38
2023-02-24T13:54:20.257Z,99342.25
2023-02-24T13:56:48.490Z,99354.06
2023-02-24T13:59:52.076Z,99344.59
2023-02-24T14:02:25.927Z,99346.66
2023-02-24T14:04:57.126Z,99340.22
2023-02-24T14:07:36.287Z,99339.94
2023-02-24T14:10:21.620Z,99338.06
2023-02-24T14:12:51.294Z,99331.97
2023-02-24T14:15:26.700Z,99318.59
2023-02-24T14:18:04.765Z,99325.81
2023-02-24T14:20:37.530Z,99328.47
2023-02-24T14:23:31.969Z,99321.72
2023-02-24T14:26:11.728Z,99315.47
2023-02-24T14:28:40.978Z,99316.72
2023-02-24T14:31:17.559Z,99314.38
2023-02-24T14:33:46.570Z,99313.56
2023-02-24T14:36:32.189Z,99314.09
2023-02-24T14:39:19.393Z,99313.28
2023-02-24T14:41:49.918Z,99310.63
2023-02-24T14:44:29.431Z,99314.50
2023-02-24T14:47:02.119Z,99305.59
2023-02-24T14:49:35.656Z,99314.41
2023-02-24T14:52:16.110Z,99309.34
2023-02-24T14:55:18.454Z,99310.81
2023-02-24T14:57:54.028Z,99301.94
2023-02-24T15:00:30.282Z,99293.13
2023-02-24T15:03:15.544Z,99289.72
2023-02-24T15:05:46.190Z,99281.19
2023-02-24T15:08:32.157Z,99282.38
2023-02-24T15:10:59.908Z,99290.88
2023-02-24T15:13:42.330Z,99292.19
2023-02-24T15:16:31.966Z,99289.38
2023-02-24T15:19:01.972Z,99284.81
2023-02-24T15:21:40.411Z,99284.00
2023-02-24T15:24:31.020Z,99281.09
2023-02-24T15:27:02.856Z,99287.59
2023-02-24T15:29:32.137Z,99277.50
2023-02-24T15:32:01.296Z,99275.56
2023-02-24T15:34:32.967Z,99276.72
2023-02-24T15:37:12.674Z,99270.31
2023-02-24T15:39:44.547Z,99280.91
2023-02-24T15:42:35.290Z,99274.91
2023-02-24T15:45:07.789Z,99276.66
2023-02-24T15:47:46.333Z,99274.69
2023-02-24T15:50:14.326Z,99280.47
2023-02-24T15:52:42.975Z,99282.16
2023-02-24T15:55:18.711Z,99275.13
2023-02-24T15:57:47.624Z,99281.59
2023-02-24T16:00:21.471Z,99282.59
2023-02-24T16:02:52.028Z,99282.03
2023-02-24T16:05:19.667Z,99288.72
2023-02-24T16:07:48.572Z,99289.50
2023-02-24T16:10:29.170Z,99277.72
2023-02-24T16:13:02.449Z,99276.50
2023-02-24T16:15:39.301Z,99280.19
2023-02-24T16:18:20.975Z,99279.66
2023-02-24T16:20:57.657Z,99281.88
2023-02-24T16:23:27.464Z,99281.06
2023-02-24T16:26:01.480Z,99272.81
2023-02-24T16:28:30.945Z,99275.66
2023-02-24T16:31:03.264Z,99283.31
2023-02-24T16:33:51.851Z,99280.03
2023-02-24T16:36:25.781Z,99275.94
2023-02-24T16:38:53.857Z,99277.59
2023-02-24T16:41:21.611Z,99270.47
2023-02-24T16:43:49.392Z,99276.38
2023-02-24T16:46:22.619Z,99280.94
2023-02-24T16:48:53.492Z,99284.28
2023-02-24T16:51:22.993Z,99282.63
2023-02-24T16:53:51.308Z,99278.63
2023-02-24T16:56:21.286Z,99275.06
2023-02-24T16:58:49.250Z,99273.13
2023-02-24T17:01:21.486Z,99281.25
2023-02-24T17:03:54.738Z,99284.88
2023-02-24T17:06:25.057Z,99286.81
2023-02-24T17:08:55.154Z,99288.91
2023-02-24T17:11:28.679Z,99296.06
2023-02-24T17:13:56.244Z,99291.28
2023-02-24T17:16:24.497Z,99287.34
2023-02-24T17:18:52.756Z,99286.22
2023-02-24T17:21:20.771Z,99285.25
2023-02-24T17:23:48.605Z,99284.13
2023-02-24T17:26:16.596Z,99293.16
2023-02-24T17:28:46.174Z,99286.84
2023-02-24T17:31:17.025Z,99288.88
2023-02-24T17:33:44.671Z,99281.50
2023-02-24T17:36:14.784Z,99293.59
2023-02-24T17:38:42.318Z,99288.66
2023-02-24T17:41:10.659Z,99284.25
2023-02-24T17:43:42.293Z,99284.97
2023-02-24T17:46:10.732Z,99285.81
2023-02-24T17:48:38.906Z,99277.44
2023-02-24T17:51:07.964Z,99276.41
2023-02-24T17:53:36.522Z,99273.66
2023-02-24T17:56:08.450Z,99279.00
2023-02-24T17:58:40.784Z,99277.94
2023-02-24T18:01:16.013Z,99276.91
2023-02-24T18:03:43.683Z,99276.06
2023-02-24T18:06:14.465Z,99263.97
2023-02-24T18:08:43.765Z,99268.34
2023-02-24T18:11:21.503Z,99268.84
2023-02-24T18:13:53.217Z,99273.53
2023-02-24T18:16:22.445Z,99280.53
2023-02-24T18:18:51.681Z,99280.38
2023-02-24T18:21:20.884Z,99273.25
2023-02-24T18:23:49.779Z,99278.41
2023-02-24T18:26:18.298Z,99286.53
2023-02-24T18:28:45.937Z,99285.38
2023-02-24T18:31:17.936Z,99279.69
2023-02-24T18:33:46.321Z,99278.50
2023-02-24T18:36:17.087Z,99275.28
2023-02-24T18:38:46.527Z,99271.13
2023-02-24T18:41:21.875Z,99273.94
2023-02-24T18:43:56.966Z,99266.22
2023-02-24T18:46:29.517Z,99269.44
2023-02-24T18:49:00.934Z,99268.06
2023-02-24T18:51:31.709Z,99268.69
2023-02-24T18:54:01.943Z,99269.44
2023-02-24T18:56:35.164Z,99272.53
2023-02-24T18:59:05.710Z,99270.38
2023-02-24T19:01:39.448Z,99277.63
2023-02-24T19:04:10.035Z,99268.53
2023-02-24T19:06:41.462Z,99262.66
2023-02-24T19:09:12.306Z,99267.13
2023-02-24T19:11:41.783Z,99266.03
2023-02-24T19:14:13.617Z,99254.81
2023-02-24T19:16:42.101Z,99256.16
2023-02-24T19:19:16.765Z,99255.88
2023-02-24T19:21:49.648Z,99255.72
2023-02-24T19:24:18.464Z,99258.63
2023-02-24T19:26:49.535Z,99257.53
2023-02-24T19:29:18.543Z,99247.56
2023-02-24T19:31:47.835Z,99251.09
2023-02-24T19:34:16.689Z,99248.63
2023-02-24T19:36:48.954Z,99254.63
2023-02-24T19:39:19.827Z,99254.03
2023-02-24T19:42:11.475Z,99259.25
2023-02-24T19:44:39.991Z,99257.19
2023-02-24T19:47:08.437Z,99255.38
2023-02-24T19:49:38.930Z,99254.44
2023-02-24T19:52:07.987Z,99260.78
2023-02-24T19:54:43.017Z,99265.50
2023-02-24T19:57:11.929Z,99254.63
2023-02-24T19:59:46.327Z,99263.06
2023-02-24T20:02:17.164Z,99248.56
2023-02-24T20:04:45.196Z,99258.69
2023-02-24T20:07:12.935Z,99258.00
2023-02-24T20:09:45.436Z,99256.44
2023-02-24T20:12:16.055Z,99253.34
2023-02-24T20:14:49.735Z,99253.72
2023-02-24T20:17:17.831Z,99246.75
2023-02-24T20:19:56.140Z,99250.22
2023-02-24T20:22:27.013Z,99254.19
2023-02-24T20:24:55.167Z,99256.06
2023-02-24T20:27:24.279Z,99243.50
2023-02-24T20:29:53.673Z,99236.06
2023-02-24T20:32:24.124Z,99235.16
2023-02-24T20:34:53.235Z,99238.84
2023-02-24T20:37:21.466Z,99242.34
2023-02-24T20:39:49.836Z,99242.34
2023-02-24T20:42:19.326Z,99241.44
2023-02-24T20:44:50.409Z,99237.41
2023-02-24T20:47:32.064Z,99241.31
2023-02-24T20:50:03.499Z,99239.38
2023-02-24T20:52:34.450Z,99238.31
2023-02-24T20:55:50.506Z,99236.41
2023-02-24T20:58:19.979Z,99238.78
2023-02-24T21:00:50.735Z,99230.53
2023-02-24T21:03:19.412Z,99235.66
2023-02-24T21:06:09.658Z,99236.06
2023-02-24T21:08:40.671Z,99234.50
2023-02-24T21:11:10.986Z,99229.59
2023-02-24T21:13:47.338Z,99220.72
2023-02-24T21:16:18.783Z,99216.84
2023-02-24T21:18:51.844Z,99212.41
2023-02-24T21:21:40.899Z,99219.78
2023-02-24T21:24:09.356Z,99222.25
2023-02-24T21:26:36.918Z,99222.25
2023-02-24T21:29:04.994Z,99217.44
2023-02-24T21:31:33.136Z,99205.25
2023-02-24T21:34:01.287Z,99215.97
2023-02-24T21:36:30.899Z,99223.56
2023-02-24T21:39:03.099Z,99225.72
2023-02-24T21:41:30.756Z,99214.47
2023-02-24T21:44:00.791Z,99212.44
2023-02-24T21:46:29.602Z,99199.72
2023-02-24T21:48:59.765Z,99198.78
2023-02-24T21:51:29.261Z,99194.94
2023-02-24T21:53:57.929Z,99189.00
2023-02-24T21:56:29.696Z,99184.72
2023-02-24T21:59:03.576Z,99190.16
2023-02-24T22:01:41.264Z,99198.63
2023-02-24T22:04:16.511Z,99194.00
2023-02-24T22:06:47.191Z,99200.19
2023-02-24T22:09:20.146Z,99193.97
2023-02-24T22:11:49.468Z,99201.75
2023-02-24T22:14:18.878Z,99181.69
2023-02-24T22:16:46.389Z,99182.94
2023-02-24T22:19:15.408Z,99176.56
2023-02-24T22:21:43.193Z,99182.34
2023-02-24T22:24:15.174Z,99179.06
2023-02-24T22:26:43.895Z,99185.75
2023-02-24T22:29:12.149Z,99182.75
2023-02-24T22:31:44.233Z,99187.97
2023-02-24T22:34:13.146Z,99181.38
2023-02-24T22:36:40.623Z,99184.47
2023-02-24T22:39:09.385Z,99186.78
2023-02-24T22:41:38.308Z,99195.28
2023-02-24T22:44:06.951Z,99182.66
2023-02-24T22:46:38.154Z,99189.13
2023-02-24T22:49:06.888Z,99192.22
2023-02-24T22:51:35.493Z,99187.38
2023-02-24T22:54:03.608Z,99190.97
2023-02-24T22:56:31.782Z,99184.75
2023-02-24T22:59:00.638Z,99178.94
2023-02-24T23:01:35.019Z,99175.78
2023-02-24T23:04:14.946Z,99177.97
2023-02-24T23:06:43.763Z,99173.72
2023-02-24T23:09:11.537Z,99168.13
2023-02-24T23:11:42.017Z,99166.13
2023-02-24T23:14:16.431Z,99165.50
2023-02-24T23:16:47.334Z,99163.50
2023-02-24T23:19:19.859Z,99161.72
2023-02-24T23:21:53.452Z,99161.84
2023-02-24T23:24:22.549Z,99161.75
2023-02-24T23:26:57.493Z,99164.50
2023-02-24T23:29:27.656Z,99161.56
2023-02-24T23:31:55.573Z,99157.56
2023-02-24T23:34:23.317Z,99159.81
2023-02-24T23:36:51.174Z,99158.19
2023-02-24T23:39:25.539Z,99161.97
2023-02-24T23:41:57.507Z,99161.97
2023-02-24T23:44:26.321Z,99151.66
2023-02-24T23:46:54.772Z,99155.03
2023-02-24T23:49:22.186Z,99152.09
2023-02-24T23:51:49.698Z,99150.06
2023-02-24T23:54:18.988Z,99142.03
2023-02-24T23:56:47.004Z,99147.41
2023-02-24T23:59:15.196Z,99140.25
